sensor_id;sensor_type;location;lat;lon;timestamp;P1;durP1;ratioP1;P2;durP2;ratioP2
21814;SDS011;11069;48.988;8.450;2023-06-04T00:00:08;8.68;;;4.15;;
21814;SDS011;11069;48.988;8.450;2023-06-04T00:02:34;5.45;;;3.40;;
21814;SDS011;11069;48.988;8.450;2023-06-04T00:05:00;5.40;;;3.97;;
21814;SDS011;11069;48.988;8.450;2023-06-04T00:07:26;5.68;;;3.70;;
21814;SDS011;11069;48.988;8.450;2023-06-04T00:09:52;5.70;;;4.20;;
21814;SDS011;11069;48.988;8.450;2023-06-04T00:12:18;6.13;;;3.90;;
21814;SDS011;11069;48.988;8.450;2023-06-04T00:14:45;5.05;;;3.83;;
21814;SDS011;11069;48.988;8.450;2023-06-04T00:17:11;6.18;;;4.10;;
21814;SDS011;11069;48.988;8.450;2023-06-04T00:19:38;5.28;;;3.85;;
21814;SDS011;11069;48.988;8.450;2023-06-04T00:22:05;6.10;;;3.95;;
21814;SDS011;11069;48.988;8.450;2023-06-04T00:24:31;5.95;;;3.88;;
21814;SDS011;11069;48.988;8.450;2023-06-04T00:26:57;7.68;;;4.22;;
21814;SDS011;11069;48.988;8.450;2023-06-04T00:29:23;4.43;;;3.55;;
21814;SDS011;11069;48.988;8.450;2023-06-04T00:31:49;4.63;;;3.33;;
21814;SDS011;11069;48.988;8.450;2023-06-04T00:34:16;4.57;;;3.63;;
21814;SDS011;11069;48.988;8.450;2023-06-04T00:36:42;3.58;;;3.00;;
21814;SDS011;11069;48.988;8.450;2023-06-04T00:39:08;4.45;;;3.15;;
21814;SDS011;11069;48.988;8.450;2023-06-04T00:41:35;6.60;;;3.33;;
21814;SDS011;11069;48.988;8.450;2023-06-04T00:44:01;4.47;;;3.00;;
21814;SDS011;11069;48.988;8.450;2023-06-04T00:46:27;4.15;;;3.10;;
21814;SDS011;11069;48.988;8.450;2023-06-04T00:48:56;4.70;;;3.03;;
21814;SDS011;11069;48.988;8.450;2023-06-04T00:51:23;4.93;;;2.70;;
21814;SDS011;11069;48.988;8.450;2023-06-04T00:53:49;4.78;;;2.85;;
21814;SDS011;11069;48.988;8.450;2023-06-04T00:56:15;3.58;;;2.75;;
21814;SDS011;11069;48.988;8.450;2023-06-04T00:58:41;5.70;;;2.50;;
21814;SDS011;11069;48.988;8.450;2023-06-04T01:01:27;3.55;;;2.80;;
21814;SDS011;11069;48.988;8.450;2023-06-04T01:03:55;5.53;;;2.72;;
21814;SDS011;11069;48.988;8.450;2023-06-04T01:06:36;3.20;;;2.38;;
21814;SDS011;11069;48.988;8.450;2023-06-04T01:09:04;3.07;;;2.37;;
21814;SDS011;11069;48.988;8.450;2023-06-04T01:11:30;3.78;;;2.78;;
21814;SDS011;11069;48.988;8.450;2023-06-04T01:13:57;4.38;;;2.70;;
21814;SDS011;11069;48.988;8.450;2023-06-04T01:16:23;4.88;;;2.78;;
21814;SDS011;11069;48.988;8.450;2023-06-04T01:18:50;3.92;;;2.85;;
21814;SDS011;11069;48.988;8.450;2023-06-04T01:21:16;4.35;;;2.42;;
21814;SDS011;11069;48.988;8.450;2023-06-04T01:23:47;3.33;;;2.47;;
21814;SDS011;11069;48.988;8.450;2023-06-04T01:26:23;3.08;;;2.33;;
21814;SDS011;11069;48.988;8.450;2023-06-04T01:28:49;2.70;;;2.17;;
21814;SDS011;11069;48.988;8.450;2023-06-04T01:31:16;2.83;;;2.13;;
21814;SDS011;11069;48.988;8.450;2023-06-04T01:33:42;4.03;;;2.50;;
21814;SDS011;11069;48.988;8.450;2023-06-04T01:36:08;2.38;;;2.03;;
21814;SDS011;11069;48.988;8.450;2023-06-04T01:38:37;2.17;;;1.90;;
21814;SDS011;11069;48.988;8.450;2023-06-04T01:41:03;4.32;;;2.17;;
21814;SDS011;11069;48.988;8.450;2023-06-04T01:43:29;3.20;;;2.05;;
21814;SDS011;11069;48.988;8.450;2023-06-04T01:45:56;3.15;;;2.20;;
21814;SDS011;11069;48.988;8.450;2023-06-04T01:48:22;4.65;;;2.08;;
21814;SDS011;11069;48.988;8.450;2023-06-04T01:50:48;3.30;;;2.20;;
21814;SDS011;11069;48.988;8.450;2023-06-04T01:53:14;4.50;;;2.30;;
21814;SDS011;11069;48.988;8.450;2023-06-04T01:55:40;2.83;;;1.80;;
21814;SDS011;11069;48.988;8.450;2023-06-04T01:58:06;2.13;;;1.60;;
21814;SDS011;11069;48.988;8.450;2023-06-04T02:00:34;2.78;;;1.85;;
21814;SDS011;11069;48.988;8.450;2023-06-04T02:03:00;2.70;;;1.75;;
21814;SDS011;11069;48.988;8.450;2023-06-04T02:05:26;2.03;;;1.70;;
21814;SDS011;11069;48.988;8.450;2023-06-04T02:07:52;2.40;;;1.77;;
21814;SDS011;11069;48.988;8.450;2023-06-04T02:10:18;2.42;;;2.03;;
21814;SDS011;11069;48.988;8.450;2023-06-04T02:12:57;3.60;;;2.00;;
21814;SDS011;11069;48.988;8.450;2023-06-04T02:15:24;2.60;;;1.90;;
21814;SDS011;11069;48.988;8.450;2023-06-04T02:17:53;2.65;;;1.70;;
21814;SDS011;11069;48.988;8.450;2023-06-04T02:20:20;2.45;;;1.70;;
21814;SDS011;11069;48.988;8.450;2023-06-04T02:22:46;1.90;;;1.60;;
21814;SDS011;11069;48.988;8.450;2023-06-04T02:25:12;2.40;;;1.77;;
21814;SDS011;11069;48.988;8.450;2023-06-04T02:27:38;2.05;;;1.52;;
21814;SDS011;11069;48.988;8.450;2023-06-04T02:30:07;1.85;;;1.60;;
21814;SDS011;11069;48.988;8.450;2023-06-04T02:32:33;3.20;;;1.52;;
21814;SDS011;11069;48.988;8.450;2023-06-04T02:35:01;3.05;;;1.90;;
21814;SDS011;11069;48.988;8.450;2023-06-04T02:37:27;2.38;;;1.50;;
21814;SDS011;11069;48.988;8.450;2023-06-04T02:39:53;2.88;;;1.77;;
21814;SDS011;11069;48.988;8.450;2023-06-04T02:42:19;1.85;;;1.50;;
21814;SDS011;11069;48.988;8.450;2023-06-04T02:44:45;4.35;;;1.88;;
21814;SDS011;11069;48.988;8.450;2023-06-04T02:47:11;2.25;;;1.67;;
21814;SDS011;11069;48.988;8.450;2023-06-04T02:49:37;1.88;;;1.48;;
21814;SDS011;11069;48.988;8.450;2023-06-04T02:52:03;2.05;;;1.50;;
21814;SDS011;11069;48.988;8.450;2023-06-04T02:54:29;2.60;;;1.75;;
21814;SDS011;11069;48.988;8.450;2023-06-04T02:56:55;2.88;;;1.40;;
21814;SDS011;11069;48.988;8.450;2023-06-04T02:59:21;1.50;;;1.40;;
21814;SDS011;11069;48.988;8.450;2023-06-04T03:01:47;3.15;;;1.45;;
21814;SDS011;11069;48.988;8.450;2023-06-04T03:04:17;2.05;;;1.58;;
21814;SDS011;11069;48.988;8.450;2023-06-04T03:06:43;1.60;;;1.40;;
21814;SDS011;11069;48.988;8.450;2023-06-04T03:09:10;3.63;;;1.42;;
21814;SDS011;11069;48.988;8.450;2023-06-04T03:11:36;1.50;;;1.40;;
21814;SDS011;11069;48.988;8.450;2023-06-04T03:14:02;3.05;;;1.42;;
21814;SDS011;11069;48.988;8.450;2023-06-04T03:16:28;1.70;;;1.60;;
21814;SDS011;11069;48.988;8.450;2023-06-04T03:18:54;7.10;;;1.73;;
21814;SDS011;11069;48.988;8.450;2023-06-04T03:21:21;1.77;;;1.42;;
21814;SDS011;11069;48.988;8.450;2023-06-04T03:23:47;3.50;;;1.50;;
21814;SDS011;11069;48.988;8.450;2023-06-04T03:26:13;2.35;;;1.83;;
21814;SDS011;11069;48.988;8.450;2023-06-04T03:28:39;1.60;;;1.45;;
21814;SDS011;11069;48.988;8.450;2023-06-04T03:31:05;1.52;;;1.25;;
21814;SDS011;11069;48.988;8.450;2023-06-04T03:33:31;2.28;;;1.73;;
21814;SDS011;11069;48.988;8.450;2023-06-04T03:35:57;2.05;;;1.42;;
21814;SDS011;11069;48.988;8.450;2023-06-04T03:38:23;3.00;;;1.85;;
21814;SDS011;11069;48.988;8.450;2023-06-04T03:40:49;2.50;;;1.50;;
21814;SDS011;11069;48.988;8.450;2023-06-04T03:43:17;3.78;;;1.48;;
21814;SDS011;11069;48.988;8.450;2023-06-04T03:45:43;2.55;;;1.50;;
21814;SDS011;11069;48.988;8.450;2023-06-04T03:48:09;2.58;;;1.55;;
21814;SDS011;11069;48.988;8.450;2023-06-04T03:50:36;2.88;;;1.80;;
21814;SDS011;11069;48.988;8.450;2023-06-04T03:53:02;3.45;;;1.70;;
21814;SDS011;11069;48.988;8.450;2023-06-04T03:55:31;4.20;;;1.83;;
21814;SDS011;11069;48.988;8.450;2023-06-04T03:57:57;2.58;;;1.50;;
21814;SDS011;11069;48.988;8.450;2023-06-04T04:00:23;1.60;;;1.45;;
21814;SDS011;11069;48.988;8.450;2023-06-04T04:02:50;1.95;;;1.30;;
21814;SDS011;11069;48.988;8.450;2023-06-04T04:05:16;1.70;;;1.55;;
21814;SDS011;11069;48.988;8.450;2023-06-04T04:07:42;2.15;;;1.33;;
21814;SDS011;11069;48.988;8.450;2023-06-04T04:10:08;2.33;;;1.40;;
21814;SDS011;11069;48.988;8.450;2023-06-04T04:12:37;1.48;;;1.38;;
21814;SDS011;11069;48.988;8.450;2023-06-04T04:15:03;2.65;;;1.90;;
21814;SDS011;11069;48.988;8.450;2023-06-04T04:17:29;2.28;;;1.50;;
21814;SDS011;11069;48.988;8.450;2023-06-04T04:19:55;2.22;;;1.48;;
21814;SDS011;11069;48.988;8.450;2023-06-04T04:22:21;2.53;;;1.60;;
21814;SDS011;11069;48.988;8.450;2023-06-04T04:24:47;2.45;;;1.52;;
21814;SDS011;11069;48.988;8.450;2023-06-04T04:27:13;2.10;;;1.40;;
21814;SDS011;11069;48.988;8.450;2023-06-04T04:29:40;2.05;;;1.60;;
21814;SDS011;11069;48.988;8.450;2023-06-04T04:32:07;1.73;;;1.52;;
21814;SDS011;11069;48.988;8.450;2023-06-04T04:34:37;2.67;;;1.70;;
21814;SDS011;11069;48.988;8.450;2023-06-04T04:37:04;1.40;;;1.27;;
21814;SDS011;11069;48.988;8.450;2023-06-04T04:39:33;1.80;;;1.40;;
21814;SDS011;11069;48.988;8.450;2023-06-04T04:41:59;1.45;;;1.20;;
21814;SDS011;11069;48.988;8.450;2023-06-04T04:44:25;1.98;;;1.45;;
21814;SDS011;11069;48.988;8.450;2023-06-04T04:46:51;2.90;;;1.67;;
21814;SDS011;11069;48.988;8.450;2023-06-04T04:49:17;2.72;;;1.67;;
21814;SDS011;11069;48.988;8.450;2023-06-04T04:51:43;4.55;;;1.58;;
21814;SDS011;11069;48.988;8.450;2023-06-04T04:54:09;1.83;;;1.42;;
21814;SDS011;11069;48.988;8.450;2023-06-04T04:56:35;2.38;;;1.40;;
21814;SDS011;11069;48.988;8.450;2023-06-04T04:59:01;1.70;;;1.40;;
21814;SDS011;11069;48.988;8.450;2023-06-04T05:01:27;1.85;;;1.15;;
21814;SDS011;11069;48.988;8.450;2023-06-04T05:03:53;2.53;;;1.58;;
21814;SDS011;11069;48.988;8.450;2023-06-04T05:06:19;1.70;;;1.33;;
21814;SDS011;11069;48.988;8.450;2023-06-04T05:08:46;1.65;;;1.40;;
21814;SDS011;11069;48.988;8.450;2023-06-04T05:11:12;2.13;;;1.15;;
21814;SDS011;11069;48.988;8.450;2023-06-04T05:13:38;2.70;;;1.35;;
21814;SDS011;11069;48.988;8.450;2023-06-04T05:16:06;3.55;;;1.50;;
21814;SDS011;11069;48.988;8.450;2023-06-04T05:18:32;1.23;;;1.05;;
21814;SDS011;11069;48.988;8.450;2023-06-04T05:20:58;1.40;;;1.30;;
21814;SDS011;11069;48.988;8.450;2023-06-04T05:23:27;1.35;;;1.20;;
21814;SDS011;11069;48.988;8.450;2023-06-04T05:25:55;3.42;;;1.10;;
21814;SDS011;11069;48.988;8.450;2023-06-04T05:28:21;1.92;;;1.30;;
21814;SDS011;11069;48.988;8.450;2023-06-04T05:30:49;2.50;;;1.50;;
21814;SDS011;11069;48.988;8.450;2023-06-04T05:33:15;1.52;;;1.40;;
21814;SDS011;11069;48.988;8.450;2023-06-04T05:35:46;1.48;;;1.00;;
21814;SDS011;11069;48.988;8.450;2023-06-04T05:38:13;2.22;;;1.38;;
21814;SDS011;11069;48.988;8.450;2023-06-04T05:40:42;1.67;;;1.30;;
21814;SDS011;11069;48.988;8.450;2023-06-04T05:43:08;2.13;;;1.63;;
21814;SDS011;11069;48.988;8.450;2023-06-04T05:45:34;1.35;;;1.20;;
21814;SDS011;11069;48.988;8.450;2023-06-04T05:48:00;1.70;;;1.10;;
21814;SDS011;11069;48.988;8.450;2023-06-04T05:50:26;1.90;;;1.35;;
21814;SDS011;11069;48.988;8.450;2023-06-04T05:52:52;1.55;;;1.15;;
21814;SDS011;11069;48.988;8.450;2023-06-04T05:55:18;2.47;;;1.45;;
21814;SDS011;11069;48.988;8.450;2023-06-04T05:57:44;2.67;;;1.52;;
21814;SDS011;11069;48.988;8.450;2023-06-04T06:00:10;1.88;;;1.33;;
21814;SDS011;11069;48.988;8.450;2023-06-04T06:02:38;2.35;;;1.30;;
21814;SDS011;11069;48.988;8.450;2023-06-04T06:05:05;1.40;;;1.30;;
21814;SDS011;11069;48.988;8.450;2023-06-04T06:07:36;4.28;;;1.50;;
21814;SDS011;11069;48.988;8.450;2023-06-04T06:10:02;2.17;;;1.50;;
21814;SDS011;11069;48.988;8.450;2023-06-04T06:12:28;1.67;;;1.20;;
21814;SDS011;11069;48.988;8.450;2023-06-04T06:14:54;1.48;;;1.33;;
21814;SDS011;11069;48.988;8.450;2023-06-04T06:17:21;1.45;;;1.27;;
21814;SDS011;11069;48.988;8.450;2023-06-04T06:19:47;2.80;;;1.40;;
21814;SDS011;11069;48.988;8.450;2023-06-04T06:22:13;2.20;;;1.60;;
21814;SDS011;11069;48.988;8.450;2023-06-04T06:24:40;2.22;;;1.30;;
21814;SDS011;11069;48.988;8.450;2023-06-04T06:27:06;2.15;;;1.30;;
21814;SDS011;11069;48.988;8.450;2023-06-04T06:29:33;1.63;;;1.33;;
21814;SDS011;11069;48.988;8.450;2023-06-04T06:31:59;2.80;;;1.27;;
21814;SDS011;11069;48.988;8.450;2023-06-04T06:34:25;1.58;;;1.05;;
21814;SDS011;11069;48.988;8.450;2023-06-04T06:36:51;1.65;;;1.30;;
21814;SDS011;11069;48.988;8.450;2023-06-04T06:39:17;1.73;;;1.20;;
21814;SDS011;11069;48.988;8.450;2023-06-04T06:41:44;2.17;;;1.40;;
21814;SDS011;11069;48.988;8.450;2023-06-04T06:44:10;1.95;;;1.40;;
21814;SDS011;11069;48.988;8.450;2023-06-04T06:46:36;1.42;;;1.15;;
21814;SDS011;11069;48.988;8.450;2023-06-04T06:49:02;1.73;;;1.30;;
21814;SDS011;11069;48.988;8.450;2023-06-04T06:51:29;1.88;;;1.30;;
21814;SDS011;11069;48.988;8.450;2023-06-04T06:53:55;2.65;;;1.23;;
21814;SDS011;11069;48.988;8.450;2023-06-04T06:56:21;1.77;;;1.20;;
21814;SDS011;11069;48.988;8.450;2023-06-04T06:58:47;1.63;;;1.27;;
21814;SDS011;11069;48.988;8.450;2023-06-04T07:01:13;1.90;;;1.27;;
21814;SDS011;11069;48.988;8.450;2023-06-04T07:03:39;2.90;;;1.48;;
21814;SDS011;11069;48.988;8.450;2023-06-04T07:06:05;1.60;;;1.35;;
21814;SDS011;11069;48.988;8.450;2023-06-04T07:08:32;1.50;;;1.40;;
21814;SDS011;11069;48.988;8.450;2023-06-04T07:10:58;1.95;;;1.27;;
21814;SDS011;11069;48.988;8.450;2023-06-04T07:13:24;2.05;;;1.30;;
21814;SDS011;11069;48.988;8.450;2023-06-04T07:15:50;1.77;;;1.10;;
21814;SDS011;11069;48.988;8.450;2023-06-04T07:18:16;2.75;;;1.27;;
21814;SDS011;11069;48.988;8.450;2023-06-04T07:20:42;1.35;;;1.25;;
21814;SDS011;11069;48.988;8.450;2023-06-04T07:23:08;2.08;;;1.35;;
21814;SDS011;11069;48.988;8.450;2023-06-04T07:25:34;1.20;;;1.00;;
21814;SDS011;11069;48.988;8.450;2023-06-04T07:28:01;3.70;;;1.50;;
21814;SDS011;11069;48.988;8.450;2023-06-04T07:30:28;2.28;;;1.52;;
21814;SDS011;11069;48.988;8.450;2023-06-04T07:32:55;3.08;;;1.35;;
21814;SDS011;11069;48.988;8.450;2023-06-04T07:35:21;2.40;;;1.40;;
21814;SDS011;11069;48.988;8.450;2023-06-04T07:37:48;3.58;;;1.58;;
21814;SDS011;11069;48.988;8.450;2023-06-04T07:40:15;2.03;;;1.23;;
21814;SDS011;11069;48.988;8.450;2023-06-04T07:42:41;1.95;;;1.27;;
21814;SDS011;11069;48.988;8.450;2023-06-04T07:45:08;3.15;;;1.52;;
21814;SDS011;11069;48.988;8.450;2023-06-04T07:47:37;1.20;;;1.08;;
21814;SDS011;11069;48.988;8.450;2023-06-04T07:50:03;1.48;;;1.10;;
21814;SDS011;11069;48.988;8.450;2023-06-04T07:52:30;1.17;;;1.08;;
21814;SDS011;11069;48.988;8.450;2023-06-04T07:54:56;2.97;;;1.30;;
21814;SDS011;11069;48.988;8.450;2023-06-04T07:57:23;2.10;;;1.23;;
21814;SDS011;11069;48.988;8.450;2023-06-04T07:59:49;1.30;;;1.20;;
21814;SDS011;11069;48.988;8.450;2023-06-04T08:02:16;1.88;;;1.23;;
21814;SDS011;11069;48.988;8.450;2023-06-04T08:04:42;1.77;;;1.10;;
21814;SDS011;11069;48.988;8.450;2023-06-04T08:07:08;2.03;;;1.42;;
21814;SDS011;11069;48.988;8.450;2023-06-04T08:09:34;1.55;;;1.17;;
21814;SDS011;11069;48.988;8.450;2023-06-04T08:12:00;2.63;;;1.33;;
21814;SDS011;11069;48.988;8.450;2023-06-04T08:14:26;1.70;;;1.20;;
21814;SDS011;11069;48.988;8.450;2023-06-04T08:16:55;1.95;;;1.13;;
21814;SDS011;11069;48.988;8.450;2023-06-04T08:19:21;2.40;;;1.50;;
21814;SDS011;11069;48.988;8.450;2023-06-04T08:21:48;1.30;;;1.20;;
21814;SDS011;11069;48.988;8.450;2023-06-04T08:24:14;2.53;;;1.70;;
21814;SDS011;11069;48.988;8.450;2023-06-04T08:26:40;1.70;;;1.27;;
21814;SDS011;11069;48.988;8.450;2023-06-04T08:29:07;1.88;;;1.30;;
21814;SDS011;11069;48.988;8.450;2023-06-04T08:31:33;1.80;;;1.30;;
21814;SDS011;11069;48.988;8.450;2023-06-04T08:33:59;1.92;;;1.50;;
21814;SDS011;11069;48.988;8.450;2023-06-04T08:36:26;2.53;;;1.23;;
21814;SDS011;11069;48.988;8.450;2023-06-04T08:38:52;2.22;;;1.30;;
21814;SDS011;11069;48.988;8.450;2023-06-04T08:41:28;1.75;;;1.50;;
21814;SDS011;11069;48.988;8.450;2023-06-04T08:43:58;4.28;;;1.27;;
21814;SDS011;11069;48.988;8.450;2023-06-04T08:46:26;2.05;;;1.35;;
21814;SDS011;11069;48.988;8.450;2023-06-04T08:48:52;2.53;;;1.50;;
21814;SDS011;11069;48.988;8.450;2023-06-04T08:51:20;2.33;;;1.48;;
21814;SDS011;11069;48.988;8.450;2023-06-04T08:53:46;1.98;;;1.25;;
21814;SDS011;11069;48.988;8.450;2023-06-04T08:56:15;2.00;;;1.30;;
21814;SDS011;11069;48.988;8.450;2023-06-04T08:58:42;2.08;;;1.42;;
21814;SDS011;11069;48.988;8.450;2023-06-04T09:01:08;1.75;;;1.17;;
21814;SDS011;11069;48.988;8.450;2023-06-04T09:03:36;1.50;;;1.30;;
21814;SDS011;11069;48.988;8.450;2023-06-04T09:06:02;1.80;;;1.50;;
21814;SDS011;11069;48.988;8.450;2023-06-04T09:08:31;3.72;;;1.80;;
21814;SDS011;11069;48.988;8.450;2023-06-04T09:10:57;1.88;;;1.50;;
21814;SDS011;11069;48.988;8.450;2023-06-04T09:13:26;1.95;;;1.40;;
21814;SDS011;11069;48.988;8.450;2023-06-04T09:15:58;1.63;;;1.20;;
21814;SDS011;11069;48.988;8.450;2023-06-04T09:18:25;3.17;;;1.50;;
21814;SDS011;11069;48.988;8.450;2023-06-04T09:20:59;2.30;;;1.40;;
21814;SDS011;11069;48.988;8.450;2023-06-04T09:23:25;2.53;;;1.50;;
21814;SDS011;11069;48.988;8.450;2023-06-04T09:25:52;1.95;;;1.55;;
21814;SDS011;11069;48.988;8.450;2023-06-04T09:28:19;1.65;;;1.45;;
21814;SDS011;11069;48.988;8.450;2023-06-04T09:30:52;2.83;;;1.85;;
21814;SDS011;11069;48.988;8.450;2023-06-04T09:33:18;1.55;;;1.40;;
21814;SDS011;11069;48.988;8.450;2023-06-04T09:35:53;1.67;;;1.42;;
21814;SDS011;11069;48.988;8.450;2023-06-04T09:38:20;1.67;;;1.45;;
21814;SDS011;11069;48.988;8.450;2023-06-04T09:40:47;1.70;;;1.52;;
21814;SDS011;11069;48.988;8.450;2023-06-04T09:43:23;1.50;;;1.10;;
21814;SDS011;11069;48.988;8.450;2023-06-04T09:45:49;2.17;;;1.60;;
21814;SDS011;11069;48.988;8.450;2023-06-04T09:48:19;4.05;;;1.50;;
21814;SDS011;11069;48.988;8.450;2023-06-04T09:50:48;1.70;;;1.42;;
21814;SDS011;11069;48.988;8.450;2023-06-04T09:55:41;1.55;;;1.40;;
21814;SDS011;11069;48.988;8.450;2023-06-04T09:58:07;2.35;;;1.63;;
21814;SDS011;11069;48.988;8.450;2023-06-04T10:00:33;1.95;;;1.40;;
21814;SDS011;11069;48.988;8.450;2023-06-04T10:03:01;1.77;;;1.45;;
21814;SDS011;11069;48.988;8.450;2023-06-04T10:05:28;3.13;;;1.67;;
21814;SDS011;11069;48.988;8.450;2023-06-04T10:07:57;1.37;;;1.23;;
21814;SDS011;11069;48.988;8.450;2023-06-04T10:10:25;1.83;;;1.73;;
21814;SDS011;11069;48.988;8.450;2023-06-04T10:13:00;2.42;;;1.38;;
21814;SDS011;11069;48.988;8.450;2023-06-04T10:15:29;2.53;;;1.60;;
21814;SDS011;11069;48.988;8.450;2023-06-04T10:17:58;4.05;;;2.08;;
21814;SDS011;11069;48.988;8.450;2023-06-04T10:20:24;1.85;;;1.30;;
21814;SDS011;11069;48.988;8.450;2023-06-04T10:22:51;2.42;;;1.30;;
21814;SDS011;11069;48.988;8.450;2023-06-04T10:25:17;1.90;;;1.40;;
21814;SDS011;11069;48.988;8.450;2023-06-04T10:27:43;2.67;;;1.40;;
21814;SDS011;11069;48.988;8.450;2023-06-04T10:30:10;2.10;;;1.30;;
21814;SDS011;11069;48.988;8.450;2023-06-04T10:32:36;1.63;;;1.13;;
21814;SDS011;11069;48.988;8.450;2023-06-04T10:35:03;2.58;;;1.58;;
21814;SDS011;11069;48.988;8.450;2023-06-04T10:37:31;1.55;;;1.45;;
21814;SDS011;11069;48.988;8.450;2023-06-04T10:39:57;2.28;;;1.77;;
21814;SDS011;11069;48.988;8.450;2023-06-04T10:42:24;2.05;;;1.45;;
21814;SDS011;11069;48.988;8.450;2023-06-04T10:44:50;2.45;;;1.73;;
21814;SDS011;11069;48.988;8.450;2023-06-04T10:47:26;2.25;;;1.70;;
21814;SDS011;11069;48.988;8.450;2023-06-04T10:50:08;2.22;;;1.63;;
21814;SDS011;11069;48.988;8.450;2023-06-04T10:52:35;2.00;;;1.60;;
21814;SDS011;11069;48.988;8.450;2023-06-04T10:55:04;2.47;;;1.23;;
21814;SDS011;11069;48.988;8.450;2023-06-04T10:57:31;2.35;;;1.67;;
21814;SDS011;11069;48.988;8.450;2023-06-04T10:59:58;3.22;;;1.55;;
21814;SDS011;11069;48.988;8.450;2023-06-04T11:02:24;1.95;;;1.33;;
21814;SDS011;11069;48.988;8.450;2023-06-04T11:07:40;3.42;;;1.55;;
21814;SDS011;11069;48.988;8.450;2023-06-04T11:10:06;3.17;;;1.42;;
21814;SDS011;11069;48.988;8.450;2023-06-04T11:12:40;3.22;;;1.45;;
21814;SDS011;11069;48.988;8.450;2023-06-04T11:15:06;2.28;;;1.50;;
21814;SDS011;11069;48.988;8.450;2023-06-04T11:17:32;1.55;;;1.25;;
21814;SDS011;11069;48.988;8.450;2023-06-04T11:19:58;1.88;;;1.38;;
21814;SDS011;11069;48.988;8.450;2023-06-04T11:22:25;2.15;;;1.38;;
21814;SDS011;11069;48.988;8.450;2023-06-04T11:24:57;4.07;;;1.80;;
21814;SDS011;11069;48.988;8.450;2023-06-04T11:27:24;1.88;;;1.27;;
21814;SDS011;11069;48.988;8.450;2023-06-04T11:29:50;2.30;;;1.60;;
21814;SDS011;11069;48.988;8.450;2023-06-04T11:32:21;2.25;;;1.45;;
21814;SDS011;11069;48.988;8.450;2023-06-04T11:34:47;2.08;;;1.58;;
21814;SDS011;11069;48.988;8.450;2023-06-04T11:37:13;1.83;;;1.55;;
21814;SDS011;11069;48.988;8.450;2023-06-04T11:39:42;1.88;;;1.40;;
21814;SDS011;11069;48.988;8.450;2023-06-04T11:42:09;2.65;;;1.83;;
21814;SDS011;11069;48.988;8.450;2023-06-04T11:44:36;1.92;;;1.70;;
21814;SDS011;11069;48.988;8.450;2023-06-04T11:47:08;2.33;;;1.83;;
21814;SDS011;11069;48.988;8.450;2023-06-04T11:49:34;3.40;;;1.83;;
21814;SDS011;11069;48.988;8.450;2023-06-04T11:52:00;3.30;;;1.67;;
21814;SDS011;11069;48.988;8.450;2023-06-04T11:54:27;5.22;;;1.90;;
21814;SDS011;11069;48.988;8.450;2023-06-04T11:56:53;2.80;;;1.35;;
21814;SDS011;11069;48.988;8.450;2023-06-04T11:59:19;1.95;;;1.60;;
21814;SDS011;11069;48.988;8.450;2023-06-04T12:01:46;3.28;;;2.10;;
21814;SDS011;11069;48.988;8.450;2023-06-04T12:04:12;2.72;;;1.65;;
21814;SDS011;11069;48.988;8.450;2023-06-04T12:06:38;2.90;;;1.83;;
21814;SDS011;11069;48.988;8.450;2023-06-04T12:09:04;2.60;;;1.85;;
21814;SDS011;11069;48.988;8.450;2023-06-04T12:11:33;3.08;;;2.05;;
21814;SDS011;11069;48.988;8.450;2023-06-04T12:14:03;4.10;;;1.80;;
21814;SDS011;11069;48.988;8.450;2023-06-04T12:16:29;3.75;;;1.80;;
21814;SDS011;11069;48.988;8.450;2023-06-04T12:21:32;3.28;;;1.83;;
21814;SDS011;11069;48.988;8.450;2023-06-04T12:24:11;2.92;;;2.00;;
21814;SDS011;11069;48.988;8.450;2023-06-04T12:26:41;3.70;;;2.10;;
21814;SDS011;11069;48.988;8.450;2023-06-04T12:29:12;2.53;;;1.98;;
21814;SDS011;11069;48.988;8.450;2023-06-04T12:31:42;2.90;;;1.88;;
21814;SDS011;11069;48.988;8.450;2023-06-04T12:34:09;2.47;;;1.77;;
21814;SDS011;11069;48.988;8.450;2023-06-04T12:36:36;2.10;;;1.60;;
21814;SDS011;11069;48.988;8.450;2023-06-04T12:39:03;2.28;;;1.70;;
21814;SDS011;11069;48.988;8.450;2023-06-04T12:41:33;3.53;;;2.03;;
21814;SDS011;11069;48.988;8.450;2023-06-04T12:43:59;2.65;;;1.95;;
21814;SDS011;11069;48.988;8.450;2023-06-04T12:46:26;3.35;;;1.75;;
21814;SDS011;11069;48.988;8.450;2023-06-04T12:48:52;3.63;;;1.77;;
21814;SDS011;11069;48.988;8.450;2023-06-04T12:51:19;4.22;;;1.95;;
21814;SDS011;11069;48.988;8.450;2023-06-04T12:53:45;3.28;;;1.92;;
21814;SDS011;11069;48.988;8.450;2023-06-04T12:56:12;3.40;;;2.30;;
21814;SDS011;11069;48.988;8.450;2023-06-04T12:58:38;2.10;;;1.63;;
21814;SDS011;11069;48.988;8.450;2023-06-04T13:01:04;3.70;;;1.95;;
21814;SDS011;11069;48.988;8.450;2023-06-04T13:03:30;3.47;;;1.80;;
21814;SDS011;11069;48.988;8.450;2023-06-04T13:05:57;2.67;;;2.30;;
21814;SDS011;11069;48.988;8.450;2023-06-04T13:08:23;4.28;;;2.80;;
21814;SDS011;11069;48.988;8.450;2023-06-04T13:10:50;3.30;;;2.08;;
21814;SDS011;11069;48.988;8.450;2023-06-04T13:13:16;2.47;;;1.95;;
21814;SDS011;11069;48.988;8.450;2023-06-04T13:15:43;2.65;;;1.60;;
21814;SDS011;11069;48.988;8.450;2023-06-04T13:18:09;2.50;;;1.80;;
21814;SDS011;11069;48.988;8.450;2023-06-04T13:20:35;2.53;;;1.92;;
21814;SDS011;11069;48.988;8.450;2023-06-04T13:23:01;2.70;;;1.90;;
21814;SDS011;11069;48.988;8.450;2023-06-04T13:25:27;3.22;;;2.10;;
21814;SDS011;11069;48.988;8.450;2023-06-04T13:27:53;2.60;;;1.63;;
21814;SDS011;11069;48.988;8.450;2023-06-04T13:30:20;2.85;;;1.60;;
21814;SDS011;11069;48.988;8.450;2023-06-04T13:32:47;2.35;;;1.70;;
21814;SDS011;11069;48.988;8.450;2023-06-04T13:35:13;2.92;;;1.83;;
21814;SDS011;11069;48.988;8.450;2023-06-04T13:37:39;3.00;;;1.85;;
21814;SDS011;11069;48.988;8.450;2023-06-04T13:40:05;2.45;;;2.10;;
21814;SDS011;11069;48.988;8.450;2023-06-04T13:42:31;2.05;;;1.77;;
21814;SDS011;11069;48.988;8.450;2023-06-04T13:44:57;3.40;;;1.75;;
21814;SDS011;11069;48.988;8.450;2023-06-04T13:47:26;2.20;;;1.73;;
21814;SDS011;11069;48.988;8.450;2023-06-04T13:49:52;1.73;;;1.48;;
21814;SDS011;11069;48.988;8.450;2023-06-04T13:52:18;2.17;;;1.63;;
21814;SDS011;11069;48.988;8.450;2023-06-04T13:54:44;2.05;;;1.52;;
21814;SDS011;11069;48.988;8.450;2023-06-04T13:57:10;1.75;;;1.50;;
21814;SDS011;11069;48.988;8.450;2023-06-04T13:59:39;1.70;;;1.60;;
21814;SDS011;11069;48.988;8.450;2023-06-04T14:02:06;2.80;;;2.00;;
21814;SDS011;11069;48.988;8.450;2023-06-04T14:04:32;1.80;;;1.50;;
21814;SDS011;11069;48.988;8.450;2023-06-04T14:06:58;2.33;;;1.70;;
21814;SDS011;11069;48.988;8.450;2023-06-04T14:09:24;2.17;;;1.75;;
21814;SDS011;11069;48.988;8.450;2023-06-04T14:11:50;1.98;;;1.45;;
21814;SDS011;11069;48.988;8.450;2023-06-04T14:14:17;2.40;;;1.90;;
21814;SDS011;11069;48.988;8.450;2023-06-04T14:16:44;4.13;;;2.03;;
21814;SDS011;11069;48.988;8.450;2023-06-04T14:19:10;2.97;;;2.05;;
21814;SDS011;11069;48.988;8.450;2023-06-04T14:21:36;2.10;;;1.73;;
21814;SDS011;11069;48.988;8.450;2023-06-04T14:24:02;2.15;;;1.92;;
21814;SDS011;11069;48.988;8.450;2023-06-04T14:26:28;2.90;;;1.92;;
21814;SDS011;11069;48.988;8.450;2023-06-04T14:28:54;3.10;;;1.67;;
21814;SDS011;11069;48.988;8.450;2023-06-04T14:31:21;2.92;;;1.80;;
21814;SDS011;11069;48.988;8.450;2023-06-04T14:33:47;3.05;;;2.00;;
21814;SDS011;11069;48.988;8.450;2023-06-04T14:36:13;2.92;;;1.98;;
21814;SDS011;11069;48.988;8.450;2023-06-04T14:38:39;3.05;;;1.85;;
21814;SDS011;11069;48.988;8.450;2023-06-04T14:41:05;2.13;;;1.65;;
21814;SDS011;11069;48.988;8.450;2023-06-04T14:43:31;2.05;;;1.85;;
21814;SDS011;11069;48.988;8.450;2023-06-04T14:45:57;2.65;;;1.92;;
21814;SDS011;11069;48.988;8.450;2023-06-04T14:48:23;2.55;;;1.95;;
21814;SDS011;11069;48.988;8.450;2023-06-04T14:50:49;3.20;;;1.77;;
21814;SDS011;11069;48.988;8.450;2023-06-04T14:53:18;2.97;;;1.80;;